Time,TemperatureF,DewpointF,PressureIn,WindDirection,WindDirectionDegrees,WindSpeedMPH,WindSpeedGustMPH,Humidity,HourlyPrecipIn,Conditions,Clouds,dailyrainin,SolarRadiationWatts/m^2,SoftwareType,DateUTC
2013-03-02 00:01:00,35.0,17.0,-100.00,West,262,9.0,23.0,47,0.00,,,0.00,1.000000,,2013-03-02 07:01:00,
2013-03-02 00:11:00,35.0,17.0,-100.00,West,262,9.0,23.0,47,0.00,,,0.00,1.000000,,2013-03-02 07:11:00,
2013-03-02 00:21:00,35.0,17.0,-100.00,West,262,9.0,23.0,47,0.00,,,0.00,1.000000,,2013-03-02 07:21:00,
2013-03-02 00:42:00,34.0,17.0,-100.00,WSW,239,10.0,20.0,49,0.00,,,0.00,1.000000,,2013-03-02 07:42:00,
2013-03-02 00:52:00,34.0,17.0,-100.00,WSW,239,10.0,20.0,49,0.00,,,0.00,1.000000,,2013-03-02 07:52:00,
2013-03-02 01:01:00,34.0,17.0,-100.00,WSW,239,10.0,20.0,49,0.00,,,0.00,1.000000,,2013-03-02 08:01:00,
2013-03-02 01:11:00,34.0,17.0,-100.00,WSW,239,10.0,20.0,49,0.00,,,0.00,1.000000,,2013-03-02 08:11:00,
2013-03-02 01:21:00,34.0,17.0,-100.00,WSW,239,10.0,20.0,49,0.00,,,0.00,1.000000,,2013-03-02 08:21:00,
2013-03-02 01:43:00,35.0,18.0,-100.00,SW,235,11.0,21.0,49,0.00,,,0.00,1.000000,,2013-03-02 08:43:00,
2013-03-02 01:52:00,35.0,18.0,-100.00,SW,235,11.0,21.0,49,0.00,,,0.00,1.000000,,2013-03-02 08:52:00,
2013-03-02 02:02:00,35.0,18.0,-100.00,SW,235,11.0,21.0,49,0.00,,,0.00,1.000000,,2013-03-02 09:02:00,
2013-03-02 02:11:00,35.0,18.0,-100.00,SW,235,11.0,21.0,49,0.00,,,0.00,1.000000,,2013-03-02 09:11:00,
2013-03-02 02:21:00,35.0,18.0,-100.00,SW,235,11.0,21.0,49,0.00,,,0.00,1.000000,,2013-03-02 09:21:00,
2013-03-02 02:42:00,34.0,18.0,-100.00,WSW,237,13.0,25.0,52,0.00,,,0.00,1.000000,,2013-03-02 09:42:00,
2013-03-02 02:52:00,34.0,18.0,-100.00,WSW,237,13.0,25.0,52,0.00,,,0.00,1.000000,,2013-03-02 09:52:00,
2013-03-02 03:01:00,34.0,18.0,-100.00,WSW,237,13.0,25.0,52,0.00,,,0.00,1.000000,,2013-03-02 10:01:00,
2013-03-02 03:16:00,34.0,18.0,-100.00,WSW,237,13.0,25.0,52,0.00,,,0.00,1.000000,,2013-03-02 10:16:00,
2013-03-02 03:21:00,34.0,18.0,-100.00,WSW,237,13.0,25.0,52,0.00,,,0.00,1.000000,,2013-03-02 10:21:00,
2013-03-02 03:43:00,34.0,19.0,-100.00,SW,222,9.0,23.0,53,0.00,,,0.00,1.000000,,2013-03-02 10:43:00,
2013-03-02 03:52:00,34.0,19.0,-100.00,SW,222,9.0,23.0,53,0.00,,,0.00,1.000000,,2013-03-02 10:52:00,
2013-03-02 04:01:00,34.0,19.0,-100.00,SW,222,9.0,23.0,53,0.00,,,0.00,1.000000,,2013-03-02 11:01:00,
2013-03-02 04:11:00,34.0,19.0,-100.00,SW,222,9.0,23.0,53,0.00,,,0.00,1.000000,,2013-03-02 11:11:00,
2013-03-02 04:21:00,34.0,19.0,-100.00,SW,222,9.0,23.0,53,0.00,,,0.00,1.000000,,2013-03-02 11:21:00,
2013-03-02 04:42:00,34.0,19.0,-100.00,SW,236,10.0,20.0,54,0.00,,,0.00,1.000000,,2013-03-02 11:42:00,
2013-03-02 04:52:00,34.0,19.0,-100.00,SW,236,10.0,20.0,54,0.00,,,0.00,1.000000,,2013-03-02 11:52:00,
2013-03-02 05:02:00,34.0,19.0,-100.00,SW,236,10.0,20.0,54,0.00,,,0.00,1.000000,,2013-03-02 12:02:00,
2013-03-02 05:11:00,34.0,19.0,-100.00,SW,236,10.0,20.0,54,0.00,,,0.00,1.000000,,2013-03-02 12:11:00,
2013-03-02 05:21:00,34.0,19.0,-100.00,SW,236,10.0,20.0,54,0.00,,,0.00,1.000000,,2013-03-02 12:21:00,
2013-03-02 05:43:00,34.0,17.0,-100.00,SW,218,11.0,27.0,50,0.00,,,0.00,1.000000,,2013-03-02 12:43:00,
2013-03-02 05:53:00,34.0,17.0,-100.00,SW,218,11.0,27.0,50,0.00,,,0.00,1.000000,,2013-03-02 12:53:00,
2013-03-02 06:01:00,34.0,17.0,-100.00,SW,218,11.0,27.0,50,0.00,,,0.00,1.000000,,2013-03-02 13:01:00,
2013-03-02 06:11:00,34.0,17.0,-100.00,SW,218,11.0,27.0,50,0.00,,,0.00,1.000000,,2013-03-02 13:11:00,
2013-03-02 06:21:00,34.0,17.0,-100.00,SW,218,11.0,27.0,50,0.00,,,0.00,1.000000,,2013-03-02 13:21:00,
2013-03-02 06:42:00,33.0,18.0,-100.00,WSW,257,10.0,25.0,54,0.00,,,0.00,1.000000,,2013-03-02 13:42:00,
2013-03-02 06:52:00,33.0,18.0,-100.00,WSW,257,10.0,25.0,54,0.00,,,0.00,1.000000,,2013-03-02 13:52:00,
2013-03-02 07:01:00,33.0,18.0,-100.00,WSW,257,10.0,25.0,54,0.00,,,0.00,1.000000,,2013-03-02 14:01:00,
2013-03-02 07:11:00,33.0,18.0,-100.00,WSW,257,10.0,25.0,54,0.00,,,0.00,1.000000,,2013-03-02 14:11:00,
2013-03-02 07:21:00,33.0,18.0,-100.00,WSW,257,10.0,25.0,54,0.00,,,0.00,1.000000,,2013-03-02 14:21:00,
2013-03-02 07:42:00,34.0,18.0,-100.00,SW,235,9.0,23.0,52,0.00,,,0.00,6.000000,,2013-03-02 14:42:00,
2013-03-02 07:52:00,34.0,18.0,-100.00,SW,235,9.0,23.0,52,0.00,,,0.00,6.000000,,2013-03-02 14:52:00,
2013-03-02 08:02:00,34.0,18.0,-100.00,SW,235,9.0,23.0,52,0.00,,,0.00,6.000000,,2013-03-02 15:02:00,
2013-03-02 08:11:00,34.0,18.0,-100.00,SW,235,9.0,23.0,52,0.00,,,0.00,6.000000,,2013-03-02 15:11:00,
2013-03-02 08:21:00,34.0,18.0,-100.00,SW,235,9.0,23.0,52,0.00,,,0.00,6.000000,,2013-03-02 15:21:00,
2013-03-02 08:42:00,37.0,18.0,-100.00,SW,233,9.0,26.0,45,0.00,,,0.00,139.000000,,2013-03-02 15:42:00,
2013-03-02 08:52:00,37.0,18.0,-100.00,SW,233,9.0,26.0,45,0.00,,,0.00,139.000000,,2013-03-02 15:52:00,
2013-03-02 09:02:00,37.0,18.0,-100.00,SW,233,9.0,26.0,45,0.00,,,0.00,139.000000,,2013-03-02 16:02:00,
2013-03-02 09:11:00,37.0,18.0,-100.00,SW,233,9.0,26.0,45,0.00,,,0.00,139.000000,,2013-03-02 16:11:00,
2013-03-02 09:21:00,37.0,18.0,-100.00,SW,233,9.0,26.0,45,0.00,,,0.00,139.000000,,2013-03-02 16:21:00,
2013-03-02 09:42:00,38.0,17.0,-100.00,SW,227,14.0,28.0,42,0.00,,,0.00,201.000000,,2013-03-02 16:42:00,
2013-03-02 09:52:00,38.0,17.0,-100.00,SW,227,14.0,28.0,42,0.00,,,0.00,201.000000,,2013-03-02 16:52:00,
2013-03-02 10:01:00,38.0,17.0,-100.00,SW,227,14.0,28.0,42,0.00,,,0.00,201.000000,,2013-03-02 17:01:00,
2013-03-02 10:11:00,38.0,17.0,-100.00,SW,227,14.0,28.0,42,0.00,,,0.00,201.000000,,2013-03-02 17:11:00,
2013-03-02 10:21:00,38.0,17.0,-100.00,SW,227,14.0,28.0,42,0.00,,,0.00,201.000000,,2013-03-02 17:21:00,
2013-03-02 10:42:00,40.0,18.0,-100.00,SW,235,12.0,29.0,41,0.00,,,0.00,317.000000,,2013-03-02 17:42:00,
2013-03-02 10:52:00,40.0,18.0,-100.00,SW,235,12.0,29.0,41,0.00,,,0.00,317.000000,,2013-03-02 17:52:00,
2013-03-02 11:02:00,40.0,18.0,-100.00,SW,235,12.0,29.0,41,0.00,,,0.00,317.000000,,2013-03-02 18:02:00,
2013-03-02 11:11:00,40.0,18.0,-100.00,SW,235,12.0,29.0,41,0.00,,,0.00,317.000000,,2013-03-02 18:11:00,
2013-03-02 11:22:00,40.0,18.0,-100.00,SW,235,12.0,29.0,41,0.00,,,0.00,317.000000,,2013-03-02 18:22:00,
2013-03-02 11:42:00,40.0,18.0,-100.00,SW,229,13.0,30.0,40,0.00,,,0.00,421.000000,,2013-03-02 18:42:00,
2013-03-02 11:52:00,40.0,18.0,-100.00,SW,229,13.0,30.0,40,0.00,,,0.00,421.000000,,2013-03-02 18:52:00,
2013-03-02 12:01:00,40.0,18.0,-100.00,SW,229,13.0,30.0,40,0.00,,,0.00,421.000000,,2013-03-02 19:01:00,
2013-03-02 12:11:00,40.0,18.0,-100.00,SW,229,13.0,30.0,40,0.00,,,0.00,421.000000,,2013-03-02 19:11:00,
2013-03-02 12:21:00,40.0,18.0,-100.00,SW,229,13.0,30.0,40,0.00,,,0.00,421.000000,,2013-03-02 19:21:00,
2013-03-02 12:42:00,40.0,18.0,-100.00,WSW,237,12.0,27.0,40,0.00,,,0.00,280.000000,,2013-03-02 19:42:00,
2013-03-02 12:52:00,40.0,18.0,-100.00,WSW,237,12.0,27.0,40,0.00,,,0.00,280.000000,,2013-03-02 19:52:00,
2013-03-02 13:01:00,40.0,18.0,-100.00,WSW,237,12.0,27.0,40,0.00,,,0.00,280.000000,,2013-03-02 20:01:00,
2013-03-02 13:11:00,40.0,18.0,-100.00,WSW,237,12.0,27.0,40,0.00,,,0.00,280.000000,,2013-03-02 20:11:00,
2013-03-02 13:21:00,40.0,18.0,-100.00,WSW,237,12.0,27.0,40,0.00,,,0.00,280.000000,,2013-03-02 20:21:00,
2013-03-02 13:42:00,47.0,18.0,-100.00,West,264,13.0,25.0,31,0.00,,,0.00,500.000000,,2013-03-02 20:42:00,
2013-03-02 13:53:00,47.0,18.0,-100.00,West,264,13.0,25.0,31,0.00,,,0.00,500.000000,,2013-03-02 20:53:00,
2013-03-02 14:02:00,47.0,18.0,-100.00,West,264,13.0,25.0,31,0.00,,,0.00,500.000000,,2013-03-02 21:02:00,
2013-03-02 14:11:00,47.0,18.0,-100.00,West,264,13.0,25.0,31,0.00,,,0.00,500.000000,,2013-03-02 21:11:00,
2013-03-02 14:22:00,47.0,18.0,-100.00,West,264,13.0,25.0,31,0.00,,,0.00,500.000000,,2013-03-02 21:22:00,
2013-03-02 14:42:00,47.0,19.0,-100.00,WSW,240,14.0,28.0,32,0.00,,,0.00,599.000000,,2013-03-02 21:42:00,
2013-03-02 14:52:00,47.0,19.0,-100.00,WSW,240,14.0,28.0,32,0.00,,,0.00,599.000000,,2013-03-02 21:52:00,
2013-03-02 15:02:00,47.0,19.0,-100.00,WSW,240,14.0,28.0,32,0.00,,,0.00,599.000000,,2013-03-02 22:02:00,
2013-03-02 15:11:00,47.0,19.0,-100.00,WSW,240,14.0,28.0,32,0.00,,,0.00,599.000000,,2013-03-02 22:11:00,
2013-03-02 15:21:00,47.0,19.0,-100.00,WSW,240,14.0,28.0,32,0.00,,,0.00,599.000000,,2013-03-02 22:21:00,
2013-03-02 15:42:00,47.0,19.0,-100.00,WSW,241,12.0,23.0,32,0.00,,,0.00,597.000000,,2013-03-02 22:42:00,
2013-03-02 15:52:00,47.0,19.0,-100.00,WSW,241,12.0,23.0,32,0.00,,,0.00,597.000000,,2013-03-02 22:52:00,
2013-03-02 16:01:00,47.0,19.0,-100.00,WSW,241,12.0,23.0,32,0.00,,,0.00,597.000000,,2013-03-02 23:01:00,
2013-03-02 16:11:00,47.0,19.0,-100.00,WSW,241,12.0,23.0,32,0.00,,,0.00,597.000000,,2013-03-02 23:11:00,
2013-03-02 16:21:00,47.0,19.0,-100.00,WSW,241,12.0,23.0,32,0.00,,,0.00,597.000000,,2013-03-02 23:21:00,
2013-03-02 16:42:00,48.0,20.0,-100.00,SSW,203,8.0,27.0,33,0.00,,,0.00,465.000000,,2013-03-02 23:42:00,
2013-03-02 16:52:00,48.0,20.0,-100.00,SSW,203,8.0,27.0,33,0.00,,,0.00,465.000000,,2013-03-02 23:52:00,
2013-03-02 17:02:00,48.0,20.0,-100.00,SSW,203,8.0,27.0,33,0.00,,,0.00,465.000000,,2013-03-03 00:02:00,
2013-03-02 17:11:00,48.0,20.0,-100.00,SSW,203,8.0,27.0,33,0.00,,,0.00,465.000000,,2013-03-03 00:11:00,
2013-03-02 17:22:00,48.0,20.0,-100.00,SSW,203,8.0,27.0,33,0.00,,,0.00,465.000000,,2013-03-03 00:22:00,
2013-03-02 17:42:00,43.0,18.0,-100.00,SSW,213,8.0,17.0,36,0.00,,,0.00,182.000000,,2013-03-03 00:42:00,
2013-03-02 17:52:00,43.0,18.0,-100.00,SSW,213,8.0,17.0,36,0.00,,,0.00,182.000000,,2013-03-03 00:52:00,
2013-03-02 18:01:00,43.0,18.0,-100.00,SSW,213,8.0,17.0,36,0.00,,,0.00,182.000000,,2013-03-03 01:01:00,
2013-03-02 18:11:00,43.0,18.0,-100.00,SSW,213,8.0,17.0,36,0.00,,,0.00,182.000000,,2013-03-03 01:11:00,
2013-03-02 18:21:00,43.0,18.0,-100.00,SSW,213,8.0,17.0,36,0.00,,,0.00,182.000000,,2013-03-03 01:21:00,
2013-03-02 18:42:00,41.0,18.0,-100.00,SW,232,10.0,22.0,39,0.00,,,0.00,51.000000,,2013-03-03 01:42:00,
2013-03-02 18:52:00,41.0,18.0,-100.00,SW,232,10.0,22.0,39,0.00,,,0.00,51.000000,,2013-03-03 01:52:00,
2013-03-02 19:01:00,41.0,18.0,-100.00,SW,232,10.0,22.0,39,0.00,,,0.00,51.000000,,2013-03-03 02:01:00,
2013-03-02 19:11:00,41.0,18.0,-100.00,SW,232,10.0,22.0,39,0.00,,,0.00,51.000000,,2013-03-03 02:11:00,
2013-03-02 19:21:00,41.0,18.0,-100.00,SW,232,10.0,22.0,39,0.00,,,0.00,51.000000,,2013-03-03 02:21:00,
2013-03-02 19:42:00,41.0,19.0,-100.00,SW,235,9.0,17.0,41,0.00,,,0.00,1.000000,,2013-03-03 02:42:00,
2013-03-02 19:52:00,41.0,19.0,-100.00,SW,235,9.0,17.0,41,0.00,,,0.00,1.000000,,2013-03-03 02:52:00,
2013-03-02 20:01:00,41.0,19.0,-100.00,SW,235,9.0,17.0,41,0.00,,,0.00,1.000000,,2013-03-03 03:01:00,
2013-03-02 20:11:00,41.0,19.0,-100.00,SW,235,9.0,17.0,41,0.00,,,0.00,1.000000,,2013-03-03 03:11:00,
2013-03-02 20:21:00,41.0,19.0,-100.00,SW,235,9.0,17.0,41,0.00,,,0.00,1.000000,,2013-03-03 03:21:00,
2013-03-02 20:42:00,40.0,19.0,-100.00,SW,218,5.0,16.0,42,0.00,,,0.00,1.000000,,2013-03-03 03:42:00,
2013-03-02 20:52:00,40.0,19.0,-100.00,SW,218,5.0,16.0,42,0.00,,,0.00,1.000000,,2013-03-03 03:52:00,
2013-03-02 21:01:00,40.0,19.0,-100.00,SW,218,5.0,16.0,42,0.00,,,0.00,1.000000,,2013-03-03 04:01:00,
2013-03-02 21:11:00,40.0,19.0,-100.00,SW,218,5.0,16.0,42,0.00,,,0.00,1.000000,,2013-03-03 04:11:00,
2013-03-02 21:21:00,40.0,19.0,-100.00,SW,218,5.0,16.0,42,0.00,,,0.00,1.000000,,2013-03-03 04:21:00,
2013-03-02 21:42:00,40.0,19.0,-100.00,West,268,3.0,15.0,42,0.00,,,0.00,1.000000,,2013-03-03 04:42:00,
2013-03-02 21:52:00,40.0,19.0,-100.00,West,268,3.0,15.0,42,0.00,,,0.00,1.000000,,2013-03-03 04:52:00,
2013-03-02 22:02:00,40.0,19.0,-100.00,West,268,3.0,15.0,42,0.00,,,0.00,1.000000,,2013-03-03 05:02:00,
2013-03-02 22:11:00,40.0,19.0,-100.00,West,268,3.0,15.0,42,0.00,,,0.00,1.000000,,2013-03-03 05:11:00,
2013-03-02 22:22:00,40.0,19.0,-100.00,West,268,3.0,15.0,42,0.00,,,0.00,1.000000,,2013-03-03 05:22:00,
2013-03-02 22:42:00,41.0,15.0,-100.00,WSW,239,5.0,10.0,34,0.00,,,0.00,1.000000,,2013-03-03 05:42:00,
2013-03-02 22:52:00,41.0,15.0,-100.00,WSW,239,5.0,10.0,34,0.00,,,0.00,1.000000,,2013-03-03 05:52:00,
2013-03-02 23:02:00,41.0,15.0,-100.00,WSW,239,5.0,10.0,34,0.00,,,0.00,1.000000,,2013-03-03 06:02:00,
2013-03-02 23:11:00,41.0,15.0,-100.00,WSW,239,5.0,10.0,34,0.00,,,0.00,1.000000,,2013-03-03 06:11:00,
2013-03-02 23:21:00,41.0,15.0,-100.00,WSW,239,5.0,10.0,34,0.00,,,0.00,1.000000,,2013-03-03 06:21:00,
2013-03-02 23:42:00,43.0,14.0,-100.00,SW,227,8.0,22.0,31,0.00,,,0.00,1.000000,,2013-03-03 06:42:00,
2013-03-02 23:52:00,43.0,14.0,-100.00,SW,227,8.0,22.0,31,0.00,,,0.00,1.000000,,2013-03-03 06:52:00,